Time;durP1;ratioP1;P1;durP2;ratioP2;P2;SDS_P1;SDS_P2;PMS_P1;PMS_P2;Temp;Humidity;BMP_temperature;BMP_pressure;BME280_temperature;BME280_humidity;BME280_pressure;Samples;Min_cycle;Max_cycle;Signal;HPM_P1;HPM_P2
2021/11/04 00:00:59;;;;;;;19.60;15.00;;;;;;;7.61;92.55;97930.27;112314;1192;61019;-77
2021/11/04 00:03:26;;;;;;;18.70;15.20;;;;;;;7.62;92.80;97926.69;112297;1193;63919;-77
2021/11/04 00:05:52;;;;;;;17.80;14.10;;;;;;;7.62;93.03;97919.93;112163;1193;61174;-77
2021/11/04 00:08:20;;;;;;;20.60;16.00;;;;;;;7.63;93.01;97913.86;112315;1193;61148;-76
2021/11/04 00:10:46;;;;;;;19.40;15.40;;;;;;;7.63;93.07;97917.20;112332;1193;66065;-78
2021/11/04 00:13:13;;;;;;;21.10;15.40;;;;;;;7.64;93.20;97913.98;112349;1193;61030;-78
2021/11/04 00:15:40;;;;;;;18.30;16.10;;;;;;;7.64;93.25;97907.13;112323;1192;63985;-78
2021/11/04 00:18:06;;;;;;;17.40;15.30;;;;;;;7.64;93.48;97889.06;112273;1193;60949;-78
2021/11/04 00:20:33;;;;;;;23.10;18.00;;;;;;;7.64;93.75;97904.77;112138;1193;60981;-76
2021/11/04 00:23:01;;;;;;;20.00;16.80;;;;;;;7.65;93.76;97909.52;112277;1192;66150;-77
2021/11/04 00:25:28;;;;;;;22.10;17.60;;;;;;;7.63;93.76;97893.88;112301;1193;61045;-77
2021/11/04 00:27:55;;;;;;;19.70;16.70;;;;;;;7.62;93.80;97905.11;112326;1192;64016;-78
2021/11/04 00:30:22;;;;;;;18.20;16.30;;;;;;;7.61;93.82;97909.63;112303;1193;61030;-77
2021/11/04 00:32:51;;;;;;;23.30;17.30;;;;;;;7.59;93.91;97899.84;112154;1193;61006;-78
2021/11/04 00:35:19;;;;;;;21.70;17.30;;;;;;;7.58;94.05;97904.87;112336;1192;66045;-77
2021/11/04 00:37:47;;;;;;;21.70;16.60;;;;;;;7.57;94.14;97906.52;112318;1193;61022;-78
2021/11/04 00:40:17;;;;;;;20.10;17.30;;;;;;;7.56;94.19;97897.25;112332;1193;62770;-79
2021/11/04 00:42:44;;;;;;;21.40;18.20;;;;;;;7.56;94.33;97902.73;112353;1193;60979;-79
2021/11/04 00:45:11;;;;;;;20.50;17.20;;;;;;;7.57;94.49;97903.03;112375;1193;61055;-79
2021/11/04 00:47:38;;;;;;;20.10;16.70;;;;;;;7.57;94.55;97895.92;112325;1193;64673;-77
2021/11/04 00:50:07;;;;;;;21.50;19.10;;;;;;;7.58;94.57;97886.14;112348;1193;61065;-77
2021/11/04 00:52:34;;;;;;;19.60;17.50;;;;;;;7.59;94.56;97893.00;112284;1192;64251;-78
2021/11/04 00:55:01;;;;;;;20.00;17.90;;;;;;;7.60;94.59;97887.06;112311;1193;61194;-78
2021/11/04 00:57:27;;;;;;;20.20;18.10;;;;;;;7.60;94.73;97885.95;112292;1186;61055;-76
2021/11/04 00:59:54;;;;;;;20.70;16.70;;;;;;;7.61;94.70;97876.73;112250;1193;66263;-77
2021/11/04 01:02:20;;;;;;;19.80;17.30;;;;;;;7.61;94.76;97873.17;112293;1192;61062;-77
2021/11/04 01:04:47;;;;;;;20.60;18.10;;;;;;;7.61;94.95;97869.27;112312;1192;65314;-78
2021/11/04 01:07:14;;;;;;;20.30;18.00;;;;;;;7.62;95.04;97869.58;112334;1193;61053;-77
2021/11/04 01:09:41;;;;;;;20.90;18.00;;;;;;;7.62;94.95;97869.20;112319;1193;60974;-77
2021/11/04 01:12:07;;;;;;;20.60;18.10;;;;;;;7.62;94.98;97857.55;112353;1192;64701;-79
2021/11/04 01:14:34;;;;;;;22.80;19.80;;;;;;;7.63;95.08;97846.90;112405;1193;61020;-76
2021/11/04 01:17:02;;;;;;;25.40;20.80;;;;;;;7.63;95.08;97839.84;112288;1193;64884;-73
2021/11/04 01:19:28;;;;;;;23.40;19.00;;;;;;;7.63;95.04;97837.19;112351;1193;60951;-78
2021/11/04 01:21:55;;;;;;;25.60;19.70;;;;;;;7.62;95.11;97841.31;112344;1193;61103;-77
2021/11/04 01:24:22;;;;;;;25.50;20.70;;;;;;;7.60;95.26;97840.88;112225;1177;75553;-77
2021/11/04 01:26:48;;;;;;;21.70;17.80;;;;;;;7.59;95.30;97840.29;112322;1193;61036;-79
2021/11/04 01:29:16;;;;;;;23.60;19.60;;;;;;;7.59;95.43;97841.73;112264;1192;64031;-76
2021/11/04 01:31:43;;;;;;;20.70;18.20;;;;;;;7.60;95.41;97830.33;112327;1193;61065;-76
2021/11/04 01:34:09;;;;;;;24.00;20.60;;;;;;;7.61;95.42;97828.83;112304;1192;60990;-77
2021/11/04 01:36:36;;;;;;;21.40;18.90;;;;;;;7.61;95.44;97839.26;112289;1192;64623;-76
2021/11/04 01:39:03;;;;;;;25.20;19.90;;;;;;;7.61;95.37;97843.46;112303;1192;61137;-77
2021/11/04 01:41:30;;;;;;;22.60;20.20;;;;;;;7.63;95.55;97841.59;112340;1193;63886;-77
2021/11/04 01:43:57;;;;;;;21.50;18.50;;;;;;;7.64;95.54;97842.92;112318;1193;61039;-77
2021/11/04 01:46:24;;;;;;;23.40;19.20;;;;;;;7.65;95.42;97833.32;112368;1193;61039;-77
2021/11/04 01:48:51;;;;;;;21.30;19.00;;;;;;;7.66;95.47;97828.30;112311;1192;64646;-77
2021/11/04 01:51:19;;;;;;;23.10;19.50;;;;;;;7.67;95.52;97825.92;112316;1193;61059;-78
2021/11/04 01:53:47;;;;;;;25.00;20.00;;;;;;;7.67;95.46;97823.23;112379;1192;64290;-77
2021/11/04 01:56:14;;;;;;;25.50;19.20;;;;;;;7.67;95.48;97812.84;112288;1193;61049;-77
2021/11/04 01:58:40;;;;;;;23.70;19.50;;;;;;;7.66;95.50;97805.63;112342;1193;61068;-77
2021/11/04 02:01:07;;;;;;;22.40;19.30;;;;;;;7.66;95.63;97805.83;112304;1192;64640;-77
2021/11/04 02:03:46;;;;;;;22.50;19.20;;;;;;;7.66;95.58;97800.35;112288;1192;61091;-77
2021/11/04 02:06:22;;;;;;;22.80;18.60;;;;;;;7.66;95.70;97787.77;112356;1193;62972;-77
2021/11/04 02:08:57;;;;;;;23.40;20.00;;;;;;;7.67;95.70;97772.90;112324;1193;61656;-76
2021/11/04 02:11:33;;;;;;;22.30;17.90;;;;;;;7.67;95.68;97765.79;112285;1192;61024;-76
2021/11/04 02:14:11;;;;;;;20.60;18.00;;;;;;;7.67;95.73;97754.79;112324;1193;64715;-76
2021/11/04 02:16:39;;;;;;;21.80;17.40;;;;;;;7.69;95.87;97755.94;112320;1178;61062;-78
2021/11/04 02:19:47;;;;;;;22.50;18.90;;;;;;;7.70;95.81;97762.70;112314;1193;62642;-76
2021/11/04 02:22:24;;;;;;;21.10;17.30;;;;;;;7.72;95.97;97763.33;112319;1192;61059;-78
2021/11/04 02:25:15;;;;;;;18.20;16.30;;;;;;;7.73;96.00;97751.23;112329;1193;61036;-76
2021/11/04 02:28:08;;;;;;;19.50;17.50;;;;;;;7.74;96.31;97727.96;112347;1192;65931;-77
2021/11/04 02:30:36;;;;;;;23.20;16.20;;;;;;;7.77;96.36;97722.84;112249;1192;61098;-78
2021/11/04 02:33:04;;;;;;;19.90;17.70;;;;;;;7.78;96.48;97716.73;112384;1177;62718;-78
2021/11/04 02:35:30;;;;;;;20.40;17.40;;;;;;;7.78;96.92;97711.23;112179;1192;61196;-77
2021/11/04 02:37:58;;;;;;;20.80;16.90;;;;;;;7.79;96.91;97704.45;112420;1193;61065;-77
2021/11/04 02:40:26;;;;;;;20.70;18.00;;;;;;;7.79;96.81;97717.02;112334;1193;65932;-77
2021/11/04 02:42:53;;;;;;;20.80;17.60;;;;;;;7.77;96.73;97721.89;112269;1193;61168;-77
2021/11/04 02:45:25;;;;;;;21.20;17.70;;;;;;;7.76;96.78;97726.36;112352;1193;62767;-77
2021/11/04 02:47:52;;;;;;;21.70;18.20;;;;;;;7.75;96.97;97725.59;112309;1192;60989;-77
2021/11/04 02:50:20;;;;;;;19.50;17.30;;;;;;;7.74;97.09;97717.77;112289;1193;61038;-77
2021/11/04 02:52:47;;;;;;;19.30;17.30;;;;;;;7.72;97.19;97722.09;112333;1193;64364;-77
2021/11/04 02:55:14;;;;;;;19.90;17.30;;;;;;;7.72;97.05;97725.15;112308;1192;61091;-78
2021/11/04 02:57:49;;;;;;;21.50;18.30;;;;;;;7.69;97.11;97727.77;112285;1193;65071;-79
2021/11/04 03:00:51;;;;;;;19.90;17.50;;;;;;;7.68;97.16;97737.77;112323;1193;61052;-79
2021/11/04 03:03:19;;;;;;;21.10;18.80;;;;;;;7.67;97.34;97734.35;112310;1193;61080;-78
2021/11/04 03:05:45;;;;;;;24.30;21.70;;;;;;;7.66;97.38;97734.56;112329;1192;67193;-78
2021/11/04 03:08:13;;;;;;;21.10;18.70;;;;;;;7.66;97.38;97728.41;112303;1193;61133;-78
2021/11/04 03:10:40;;;;;;;24.10;21.60;;;;;;;7.65;97.52;97725.47;112284;1193;64021;-78
2021/11/04 03:13:07;;;;;;;28.40;22.80;;;;;;;7.64;97.62;97716.68;112287;1192;61045;-78
2021/11/04 03:15:37;;;;;;;24.40;21.70;;;;;;;7.64;97.69;97709.59;112310;1193;61001;-78
2021/11/04 03:18:05;;;;;;;23.70;19.70;;;;;;;7.64;97.74;97701.33;112279;1193;65950;-78
2021/11/04 03:20:34;;;;;;;21.10;18.90;;;;;;;7.64;97.86;97706.09;112330;1192;61000;-76
2021/11/04 03:23:04;;;;;;;21.00;18.70;;;;;;;7.65;97.85;97714.47;112323;1193;63813;-77
2021/11/04 03:25:32;;;;;;;21.90;18.70;;;;;;;7.66;97.89;97712.10;112334;1193;61062;-76
2021/11/04 03:28:01;;;;;;;24.70;18.30;;;;;;;7.67;98.07;97703.01;112203;1194;60972;-76
2021/11/04 03:30:33;;;;;;;21.70;18.10;;;;;;;7.68;98.08;97691.48;112350;1192;66479;-77
2021/11/04 03:33:01;;;;;;;20.10;17.40;;;;;;;7.68;98.19;97703.15;112343;1192;60985;-76
2021/11/04 03:35:30;;;;;;;22.80;18.90;;;;;;;7.68;98.19;97700.47;112268;1193;64044;-76
2021/11/04 03:38:00;;;;;;;21.90;17.70;;;;;;;7.68;98.22;97695.34;112361;1192;61078;-77
2021/11/04 03:40:29;;;;;;;21.60;16.50;;;;;;;7.68;98.33;97692.66;112322;1193;60982;-77
2021/11/04 03:42:56;;;;;;;19.60;17.00;;;;;;;7.69;98.33;97691.54;112281;1193;64640;-77
2021/11/04 03:45:24;;;;;;;21.80;18.60;;;;;;;7.70;98.36;97695.56;112332;1193;61039;-76
2021/11/04 03:47:51;;;;;;;20.40;17.30;;;;;;;7.71;98.40;97690.89;112331;1193;65009;-77
2021/11/04 03:50:19;;;;;;;20.00;16.50;;;;;;;7.72;98.44;97687.25;112351;1177;61065;-77
2021/11/04 03:52:47;;;;;;;19.00;16.90;;;;;;;7.74;98.48;97676.02;112303;1193;61068;-78
2021/11/04 03:55:15;;;;;;;19.30;16.80;;;;;;;7.75;98.50;97669.40;112283;1184;66045;-77
2021/11/04 03:57:43;;;;;;;20.60;16.90;;;;;;;7.76;98.62;97664.05;112298;1193;61036;-77
2021/11/04 04:00:12;;;;;;;19.40;15.80;;;;;;;7.77;98.67;97658.14;112354;1193;63219;-75
2021/11/04 04:02:40;;;;;;;17.80;15.60;;;;;;;7.77;98.58;97659.88;112329;1192;61055;-77
2021/11/04 04:05:07;;;;;;;20.30;16.90;;;;;;;7.77;98.81;97656.83;112290;1193;61110;-77
2021/11/04 04:07:34;;;;;;;21.30;18.20;;;;;;;7.77;98.81;97655.95;112353;1193;64811;-80
2021/11/04 04:10:00;;;;;;;20.10;16.70;;;;;;;7.77;98.88;97653.33;112379;1192;61747;-79
2021/11/04 04:12:27;;;;;;;21.70;17.00;;;;;;;7.76;98.87;97637.80;112214;1193;62656;-78
2021/11/04 04:14:54;;;;;;;20.70;17.60;;;;;;;7.76;98.85;97629.38;112327;1193;60982;-79
2021/11/04 04:17:21;;;;;;;19.30;16.50;;;;;;;7.75;98.98;97626.08;112374;1192;61069;-79
2021/11/04 04:19:50;;;;;;;21.20;18.40;;;;;;;7.74;99.15;97614.29;112296;1193;66029;-79
2021/11/04 04:22:19;;;;;;;20.30;17.60;;;;;;;7.72;99.03;97605.97;112396;1193;61147;-77
2021/11/04 04:24:46;;;;;;;21.90;17.90;;;;;;;7.69;99.11;97607.77;112325;1193;62663;-76
2021/11/04 04:27:13;;;;;;;19.50;16.80;;;;;;;7.66;99.32;97601.59;112290;1192;61036;-78
2021/11/04 04:29:39;;;;;;;20.80;17.10;;;;;;;7.64;99.42;97592.41;112335;1193;61085;-78
2021/11/04 04:32:06;;;;;;;21.20;18.10;;;;;;;7.62;99.48;97586.08;112164;1193;67015;-76
2021/11/04 04:34:33;;;;;;;19.30;17.20;;;;;;;7.58;99.50;97598.00;112371;1193;61042;-78
2021/11/04 04:37:00;;;;;;;19.10;17.10;;;;;;;7.56;99.32;97601.75;112303;1193;62654;-76
2021/11/04 04:39:26;;;;;;;20.30;16.70;;;;;;;7.52;99.56;97592.49;112152;1193;60955;-76
2021/11/04 04:41:53;;;;;;;18.40;15.70;;;;;;;7.49;99.78;97586.15;112179;1193;61122;-78
2021/11/04 04:44:20;;;;;;;19.50;15.40;;;;;;;7.47;99.62;97586.34;112283;1193;64734;-76
2021/11/04 04:46:46;;;;;;;23.90;17.10;;;;;;;7.44;99.78;97591.83;112330;1193;61089;-76
2021/11/04 04:49:13;;;;;;;19.70;16.50;;;;;;;7.41;99.65;97592.28;112306;1192;65057;-77
2021/11/04 04:51:40;;;;;;;20.70;16.30;;;;;;;7.37;99.75;97586.40;112294;1193;61013;-77
2021/11/04 04:54:07;;;;;;;18.40;15.80;;;;;;;7.35;99.96;97589.72;112290;1192;61006;-76
2021/11/04 04:56:33;;;;;;;18.90;15.80;;;;;;;7.34;100.00;97579.71;112261;1192;64777;-77
2021/11/04 04:59:01;;;;;;;19.20;17.10;;;;;;;7.33;100.00;97568.67;112273;1193;61042;-77
2021/11/04 05:01:28;;;;;;;20.00;16.30;;;;;;;7.33;100.00;97561.95;112279;1193;65019;-77
2021/11/04 05:03:54;;;;;;;19.50;15.40;;;;;;;7.33;100.00;97559.50;112276;1192;61082;-76
2021/11/04 05:06:21;;;;;;;17.50;15.20;;;;;;;7.34;100.00;97556.96;112328;1193;61053;-78
2021/11/04 05:08:47;;;;;;;18.40;16.40;;;;;;;7.35;100.00;97553.70;112307;1193;66972;-77
2021/11/04 05:11:15;;;;;;;19.60;15.80;;;;;;;7.36;100.00;97548.69;112168;1193;61122;-76
2021/11/04 05:13:42;;;;;;;17.70;15.20;;;;;;;7.36;100.00;97541.60;112258;1193;63809;-77
2021/11/04 05:16:08;;;;;;;16.50;14.70;;;;;;;7.36;100.00;97527.65;112308;1193;61052;-76
2021/11/04 05:18:35;;;;;;;19.40;15.80;;;;;;;7.37;100.00;97513.57;112317;1193;61055;-78
2021/11/04 05:21:02;;;;;;;18.20;14.10;;;;;;;7.40;100.00;97505.23;112268;1192;64920;-77
2021/11/04 05:23:28;;;;;;;17.80;13.90;;;;;;;7.42;100.00;97503.13;112272;1193;61059;-77
2021/11/04 05:25:55;;;;;;;16.30;13.80;;;;;;;7.45;100.00;97500.05;112309;1192;63993;-77
2021/11/04 05:28:21;;;;;;;24.20;16.40;;;;;;;7.50;100.00;97498.48;112158;1194;61093;-76
2021/11/04 05:30:48;;;;;;;20.50;15.50;;;;;;;7.54;100.00;97500.24;112200;1193;61090;-77
2021/11/04 05:33:15;;;;;;;20.60;15.50;;;;;;;7.59;100.00;97496.14;112133;1194;66995;-77
2021/11/04 05:35:41;;;;;;;17.00;13.80;;;;;;;7.62;100.00;97490.62;112297;1192;61039;-77
2021/11/04 05:38:08;;;;;;;15.60;13.50;;;;;;;7.64;99.99;97485.99;112175;1193;64005;-76
2021/11/04 05:40:36;;;;;;;19.10;15.50;;;;;;;7.66;99.95;97487.58;112321;1193;61031;-78
2021/11/04 05:43:03;;;;;;;19.90;15.00;;;;;;;7.68;99.99;97484.98;112310;1193;61032;-77
2021/11/04 05:45:30;;;;;;;19.10;15.20;;;;;;;7.69;99.84;97480.14;112320;1193;64637;-77
2021/11/04 05:47:57;;;;;;;17.60;13.60;;;;;;;7.69;99.88;97476.77;112283;1192;61146;-77
2021/11/04 05:50:24;;;;;;;18.60;15.50;;;;;;;7.69;99.93;97476.07;112277;1193;63665;-78
2021/11/04 05:52:50;;;;;;;21.60;16.60;;;;;;;7.70;99.85;97474.09;112272;1193;60910;-76
2021/11/04 05:55:18;;;;;;;24.00;16.80;;;;;;;7.69;99.78;97474.31;112322;1193;61018;-75
2021/11/04 05:57:44;;;;;;;21.00;15.90;;;;;;;7.68;99.74;97471.91;112307;1193;66073;-75
2021/11/04 06:00:11;;;;;;;18.40;14.10;;;;;;;7.68;99.76;97473.83;112286;1192;61043;-76
2021/11/04 06:02:38;;;;;;;19.40;15.90;;;;;;;7.68;99.84;97472.77;112281;1187;64042;-77
2021/11/04 06:05:05;;;;;;;19.60;15.60;;;;;;;7.70;99.86;97470.68;112330;1193;61029;-77
2021/11/04 06:07:32;;;;;;;17.80;14.90;;;;;;;7.71;99.81;97474.13;112159;1193;61068;-76
2021/11/04 06:09:58;;;;;;;19.70;15.60;;;;;;;7.74;99.87;97470.25;112304;1192;66009;-78
2021/11/04 06:12:25;;;;;;;18.60;15.30;;;;;;;7.76;99.73;97472.55;112297;1193;61052;-78
2021/11/04 06:14:51;;;;;;;17.00;15.10;;;;;;;7.77;99.78;97460.96;112312;1193;63984;-77
2021/11/04 06:17:18;;;;;;;19.50;13.10;;;;;;;7.80;99.80;97457.22;112276;1193;61068;-77
2021/11/04 06:19:45;;;;;;;18.10;14.20;;;;;;;7.83;99.75;97444.35;112319;1193;60963;-77
2021/11/04 06:22:11;;;;;;;16.00;14.00;;;;;;;7.86;99.73;97452.06;112287;1192;66983;-76
2021/11/04 06:24:38;;;;;;;15.20;13.20;;;;;;;7.88;99.67;97448.35;112316;1193;61214;-78
2021/11/04 06:27:05;;;;;;;14.10;12.10;;;;;;;7.93;99.71;97440.23;112297;1193;64466;-78
2021/11/04 06:29:31;;;;;;;12.90;11.40;;;;;;;7.99;99.69;97436.58;112309;1193;61036;-77
2021/11/04 06:31:58;;;;;;;13.90;11.50;;;;;;;8.06;99.62;97454.01;112318;1192;61058;-77
2021/11/04 06:34:24;;;;;;;16.10;11.10;;;;;;;8.12;99.57;97468.70;112300;1192;66046;-77
2021/11/04 06:36:51;;;;;;;14.30;11.80;;;;;;;8.18;99.39;97473.05;112306;1193;61098;-78
2021/11/04 06:39:17;;;;;;;15.10;11.30;;;;;;;8.23;99.36;97469.64;112290;1193;64089;-77
2021/11/04 06:41:44;;;;;;;14.60;11.00;;;;;;;8.29;99.43;97466.61;112285;1193;61137;-75
2021/11/04 06:44:11;;;;;;;15.10;12.80;;;;;;;8.37;99.20;97468.31;112324;1193;60975;-76
2021/11/04 06:46:41;;;;;;;18.80;12.40;;;;;;;8.43;99.03;97472.42;112364;1192;66001;-77
2021/11/04 06:49:09;;;;;;;;;;;;;;;8.49;98.95;97467.16;112352;1192;60947;-78
2021/11/04 06:51:41;;;;;;;17.80;13.10;;;;;;;8.53;98.87;97464.34;112369;1193;63957;-77
2021/11/04 06:54:11;;;;;;;16.60;12.90;;;;;;;8.57;98.78;97460.09;112180;1193;60999;-76
2021/11/04 06:56:41;;;;;;;17.90;12.70;;;;;;;8.61;98.70;97457.14;112325;1193;60955;-78
2021/11/04 06:59:26;;;;;;;19.60;14.10;;;;;;;8.64;98.63;97461.00;112191;1193;66329;-77
2021/11/04 07:01:55;;;;;;;21.20;15.20;;;;;;;8.66;98.64;97468.60;112295;1192;60973;-77
2021/11/04 07:04:36;;;;;;;16.40;13.40;;;;;;;8.67;98.60;97462.09;112331;1193;64020;-79
2021/11/04 07:07:11;;;;;;;16.20;13.50;;;;;;;8.68;98.58;97461.54;112440;1193;61061;-77
2021/11/04 07:09:40;;;;;;;16.90;13.40;;;;;;;8.69;98.65;97456.10;112380;1193;61074;-78
2021/11/04 07:12:12;;;;;;;17.10;13.60;;;;;;;8.71;98.65;97455.73;112239;1192;66114;-78
2021/11/04 07:14:42;;;;;;;14.60;11.90;;;;;;;8.73;98.68;97458.03;112232;1190;61101;-77
2021/11/04 07:17:11;;;;;;;15.70;13.20;;;;;;;8.76;98.61;97459.05;112361;1193;63703;-76
2021/11/04 07:19:39;;;;;;;17.20;13.40;;;;;;;8.78;98.55;97455.86;112325;1193;60953;-77
2021/11/04 07:22:29;;;;;;;15.50;12.40;;;;;;;8.81;98.52;97453.91;112374;1193;60988;-77
2021/11/04 07:25:17;;;;;;;14.90;13.30;;;;;;;8.83;98.29;97447.50;112337;1193;66153;-77
2021/11/04 07:27:58;;;;;;;16.00;12.40;;;;;;;8.86;98.10;97438.23;112142;1195;61139;-78
2021/11/04 07:30:29;;;;;;;15.50;13.50;;;;;;;8.90;97.99;97423.50;112297;1192;63998;-78
2021/11/04 07:32:59;;;;;;;17.70;13.60;;;;;;;8.96;97.85;97410.41;112318;1192;61065;-78
2021/11/04 07:35:35;;;;;;;18.20;13.70;;;;;;;9.02;97.81;97412.55;112349;1193;61029;-78
2021/11/04 07:38:13;;;;;;;18.80;14.80;;;;;;;9.09;97.50;97408.21;112303;1193;66037;-77
2021/11/04 07:40:41;;;;;;;16.90;14.10;;;;;;;9.17;97.44;97409.15;112348;1193;61042;-81
2021/11/04 07:43:08;;;;;;;14.40;12.60;;;;;;;9.25;97.33;97414.64;112301;1192;65019;-78
2021/11/04 07:45:36;;;;;;;17.40;15.40;;;;;;;9.34;97.23;97412.83;112270;1193;61078;-76
2021/11/04 07:48:03;;;;;;;23.60;18.70;;;;;;;9.41;97.01;97401.35;112365;1193;60963;-88
2021/11/04 07:50:31;;;;;;;38.00;23.20;;;;;;;9.48;96.85;97403.98;112631;1187;66898;-83
2021/11/04 07:52:59;;;;;;;40.30;26.10;;;;;;;9.52;96.84;97400.60;112454;1193;61029;-83
2021/11/04 07:55:26;;;;;;;32.70;22.50;;;;;;;9.55;96.85;97398.96;112661;1193;64123;-87
2021/11/04 07:57:53;;;;;;;15.30;13.50;;;;;;;9.58;96.83;97386.21;112759;1193;61090;-86
2021/11/04 08:00:23;;;;;;;15.10;11.80;;;;;;;9.63;96.74;97383.28;112755;1193;61049;-85
2021/11/04 08:02:49;;;;;;;14.30;10.80;;;;;;;9.70;96.67;97373.47;113158;1193;65912;-75
2021/11/04 08:05:18;;;;;;;11.50;10.30;;;;;;;9.79;96.58;97368.05;112539;1193;61001;-77
2021/11/04 08:07:45;;;;;;;13.50;10.90;;;;;;;9.92;96.24;97357.66;112308;1193;64060;-75
2021/11/04 08:10:17;;;;;;;15.20;10.10;;;;;;;10.05;96.07;97351.30;112563;1193;60947;-75
2021/11/04 08:12:44;;;;;;;11.40;9.90;;;;;;;10.19;95.87;97349.56;112558;1193;60992;-75
2021/11/04 08:15:12;;;;;;;10.50;9.00;;;;;;;10.32;95.44;97349.45;112602;1193;67004;-75
2021/11/04 08:17:39;;;;;;;10.10;8.90;;;;;;;10.47;95.20;97342.56;112568;1192;60803;-75
2021/11/04 08:20:08;;;;;;;12.50;9.20;;;;;;;10.62;94.92;97342.20;112477;1193;64027;-75
2021/11/04 08:22:35;;;;;;;10.80;8.20;;;;;;;10.79;94.63;97342.60;112498;1193;61160;-75
2021/11/04 08:25:04;;;;;;;9.70;7.80;;;;;;;10.95;94.30;97333.23;112518;1193;61796;-75
2021/11/04 08:27:32;;;;;;;7.90;7.00;;;;;;;11.11;93.99;97328.85;112310;1192;65911;-75
2021/11/04 08:29:59;;;;;;;10.20;7.60;;;;;;;11.25;93.63;97326.42;112525;1192;61110;-75
2021/11/04 08:32:26;;;;;;;8.50;7.00;;;;;;;11.39;93.08;97323.48;112460;1193;64184;-75
2021/11/04 08:34:53;;;;;;;8.10;7.10;;;;;;;11.54;92.58;97319.35;112481;1193;61019;-76
2021/11/04 08:37:19;;;;;;;9.10;7.10;;;;;;;11.66;92.15;97311.95;112469;1192;61049;-74
2021/11/04 08:39:46;;;;;;;8.40;7.00;;;;;;;11.77;91.84;97309.63;112454;1193;65893;-73
2021/11/04 08:42:15;;;;;;;6.10;5.50;;;;;;;11.88;91.67;97308.98;112505;1192;61844;-76
2021/11/04 08:44:42;;;;;;;7.50;6.60;;;;;;;11.97;91.14;97302.52;112292;1193;65012;-75
2021/11/04 08:47:10;;;;;;;8.40;6.30;;;;;;;12.06;90.95;97294.35;112485;1192;61084;-74
2021/11/04 08:49:38;;;;;;;9.00;6.70;;;;;;;12.15;90.64;97292.58;112495;1193;61046;-76
2021/11/04 08:52:07;;;;;;;7.10;5.90;;;;;;;12.22;90.45;97296.11;112486;1192;64687;-77
2021/11/04 08:54:35;;;;;;;7.80;6.90;;;;;;;12.29;90.17;97299.13;112254;1193;61020;-77
2021/11/04 08:57:02;;;;;;;9.10;6.40;;;;;;;12.37;89.65;97289.48;112468;1193;65031;-75
2021/11/04 08:59:29;;;;;;;7.70;6.80;;;;;;;12.44;89.24;97289.66;112556;1192;61004;-75
2021/11/04 09:01:56;;;;;;;9.80;7.70;;;;;;;12.50;88.82;97295.20;112499;1193;61033;-75
2021/11/04 09:04:22;;;;;;;15.20;13.60;;;;;;;12.57;88.60;97298.83;112492;1192;65980;-75
2021/11/04 09:06:51;;;;;;;13.10;11.80;;;;;;;12.61;88.39;97307.81;112272;1194;61008;-75
2021/11/04 09:09:17;;;;;;;10.10;8.30;;;;;;;12.66;88.24;97318.06;112474;1192;64329;-75
2021/11/04 09:11:44;;;;;;;9.00;7.80;;;;;;;12.67;87.99;97320.05;112493;1192;61011;-75
2021/11/04 09:14:12;;;;;;;10.70;7.40;;;;;;;12.67;87.83;97314.34;112503;1192;61093;-76
2021/11/04 09:16:41;;;;;;;9.60;7.40;;;;;;;12.65;87.54;97307.27;112507;1193;65982;-77
2021/11/04 09:19:08;;;;;;;8.40;7.60;;;;;;;12.61;87.64;97303.50;112522;1193;60943;-75
2021/11/04 09:21:35;;;;;;;8.20;7.30;;;;;;;12.60;87.51;97311.45;112487;1192;63988;-75
2021/11/04 09:24:02;;;;;;;12.00;8.00;;;;;;;12.61;87.28;97317.61;112480;1193;61062;-75
2021/11/04 09:26:29;;;;;;;8.90;7.30;;;;;;;12.64;87.24;97315.52;112554;1191;60937;-75
2021/11/04 09:28:56;;;;;;;10.50;7.20;;;;;;;12.66;87.17;97317.67;112309;1192;66017;-75
2021/11/04 09:31:23;;;;;;;8.20;6.10;;;;;;;12.69;87.27;97324.20;112241;1193;61609;-76
2021/11/04 09:33:50;;;;;;;9.30;6.50;;;;;;;12.79;87.19;97313.45;112535;1193;62647;-77
2021/11/04 09:36:17;;;;;;;9.60;7.00;;;;;;;12.91;86.70;97312.61;112466;1192;61164;-75
2021/11/04 09:38:44;;;;;;;10.10;9.20;;;;;;;13.05;86.65;97310.11;112507;1192;61039;-77
2021/11/04 09:41:15;;;;;;;8.10;6.30;;;;;;;13.17;86.53;97297.92;112472;1177;66034;-76
2021/11/04 09:43:42;;;;;;;8.20;6.20;;;;;;;13.25;86.27;97291.05;112516;1193;61052;-77
2021/11/04 09:46:09;;;;;;;8.10;6.30;;;;;;;13.33;86.02;97293.94;112450;1193;62693;-77
2021/11/04 09:48:37;;;;;;;6.60;5.40;;;;;;;13.38;85.68;97288.48;112489;1193;61012;-73
2021/11/04 09:51:04;;;;;;;9.10;6.10;;;;;;;13.40;85.69;97278.45;112522;1193;61613;-76
2021/11/04 09:53:31;;;;;;;9.10;6.10;;;;;;;13.41;85.44;97269.09;112490;1193;66004;-77
2021/11/04 09:56:03;;;;;;;9.10;6.50;;;;;;;13.40;85.39;97273.98;112320;1193;61014;-79
2021/11/04 09:58:34;;;;;;;10.20;6.70;;;;;;;13.40;85.43;97268.24;112530;1193;62756;-77
2021/11/04 10:01:19;;;;;;;10.20;6.80;;;;;;;13.42;85.33;97274.17;112532;1192;61013;-76
2021/11/04 10:03:46;;;;;;;9.50;6.60;;;;;;;13.44;85.26;97256.98;112482;1192;61023;-77
2021/11/04 10:06:27;;;;;;;9.60;6.70;;;;;;;13.48;85.23;97257.92;112498;1192;65954;-77
2021/11/04 10:09:01;;;;;;;9.60;6.20;;;;;;;13.55;85.19;97261.25;112493;1193;61014;-77
2021/11/04 10:11:31;;;;;;;11.50;8.20;;;;;;;13.63;85.18;97261.51;112303;1193;62765;-77
2021/11/04 10:14:15;;;;;;;13.80;7.50;;;;;;;13.71;85.03;97259.83;112466;1193;60956;-76
2021/11/04 10:16:42;;;;;;;8.90;6.20;;;;;;;13.76;84.67;97256.73;112523;1193;61027;-76
2021/11/04 10:19:11;;;;;;;9.10;6.40;;;;;;;13.79;84.52;97262.17;112471;1193;65909;-76
2021/11/04 10:21:52;;;;;;;10.60;6.50;;;;;;;13.82;84.60;97271.30;112513;1193;60936;-75
2021/11/04 10:24:22;;;;;;;10.60;6.90;;;;;;;13.85;84.56;97270.09;112529;1194;64147;-76
2021/11/04 10:26:54;;;;;;;12.90;7.10;;;;;;;13.89;84.39;97280.53;112497;1193;60975;-75
2021/11/04 10:29:25;;;;;;;10.10;5.60;;;;;;;13.93;84.15;97281.50;112536;1192;61040;-75
2021/11/04 10:31:57;;;;;;;10.40;6.30;;;;;;;13.97;84.11;97279.96;112493;1193;66064;-74
2021/11/04 10:34:25;;;;;;;7.00;5.80;;;;;;;14.03;84.12;97281.80;112473;1192;60934;-76
2021/11/04 10:36:53;;;;;;;9.00;6.10;;;;;;;14.09;83.81;97275.11;112443;1193;63999;-76
2021/11/04 10:39:25;;;;;;;7.70;6.10;;;;;;;14.12;83.81;97273.54;112480;1193;61066;-75
2021/11/04 10:41:56;;;;;;;9.80;6.50;;;;;;;14.11;83.70;97267.25;112456;1191;61035;-75
2021/11/04 10:44:23;;;;;;;12.20;6.80;;;;;;;14.08;83.54;97273.69;112459;1192;66099;-75
2021/11/04 10:46:53;;;;;;;9.30;6.00;;;;;;;14.05;83.54;97273.45;112511;1191;61065;-76
2021/11/04 10:49:27;;;;;;;11.20;6.20;;;;;;;14.04;83.60;97268.69;112442;1192;62775;-75
2021/11/04 10:52:04;;;;;;;8.20;6.30;;;;;;;14.08;83.67;97264.38;112499;1193;61466;-75
2021/11/04 10:54:47;;;;;;;8.30;6.30;;;;;;;14.12;83.67;97259.78;112510;1193;62870;-75
2021/11/04 10:57:41;;;;;;;7.70;5.90;;;;;;;14.16;83.43;97260.59;112523;1191;66009;-76
2021/11/04 11:00:22;;;;;;;10.70;6.50;;;;;;;14.20;83.25;97246.98;112441;1192;60915;-75
2021/11/04 11:03:14;;;;;;;11.00;6.40;;;;;;;14.22;83.07;97243.67;112464;1194;62676;-75
2021/11/04 11:05:43;;;;;;;11.20;7.30;;;;;;;14.26;83.03;97251.60;112404;1193;61100;-76
2021/11/04 11:08:10;;;;;;;9.00;6.60;;;;;;;14.33;82.78;97255.64;112217;1193;60977;-75
2021/11/04 11:10:39;;;;;;;13.80;6.40;;;;;;;14.45;82.85;97251.21;112501;1191;66064;-77
2021/11/04 11:13:07;;;;;;;10.40;6.40;;;;;;;14.59;82.87;97257.71;112538;1192;61077;-76
2021/11/04 11:15:37;;;;;;;8.10;6.20;;;;;;;14.74;82.67;97251.95;112517;1193;64061;-76
2021/11/04 11:18:05;;;;;;;8.70;7.00;;;;;;;14.85;82.39;97243.38;112504;1192;61065;-76
2021/11/04 11:20:33;;;;;;;13.00;7.90;;;;;;;14.93;82.05;97238.81;112500;1192;61056;-75
2021/11/04 11:23:02;;;;;;;10.20;8.10;;;;;;;14.99;81.89;97227.44;112254;1193;66994;-76
2021/11/04 11:25:35;;;;;;;12.40;8.40;;;;;;;15.09;82.19;97236.81;112512;1192;61026;-76
2021/11/04 11:28:04;;;;;;;12.60;9.30;;;;;;;15.25;82.34;97227.83;112483;1193;63096;-77